sensor_id;sensor_type;location;lat;lon;timestamp;P1;durP1;ratioP1;P2;durP2;ratioP2
75552;SDS011;64136;53.118;17.996;2023-08-06T00:01:51;3.10;;;2.30;;
75552;SDS011;64136;53.118;17.996;2023-08-06T00:04:17;2.70;;;2.10;;
75552;SDS011;64136;53.118;17.996;2023-08-06T00:06:43;5.00;;;2.60;;
75552;SDS011;64136;53.118;17.996;2023-08-06T00:09:09;3.20;;;2.20;;
75552;SDS011;64136;53.118;17.996;2023-08-06T00:11:35;4.70;;;2.40;;
75552;SDS011;64136;53.118;17.996;2023-08-06T00:14:01;2.20;;;2.00;;
75552;SDS011;64136;53.118;17.996;2023-08-06T00:16:28;3.30;;;2.40;;
75552;SDS011;64136;53.118;17.996;2023-08-06T00:18:54;3.60;;;2.50;;
75552;SDS011;64136;53.118;17.996;2023-08-06T00:21:20;2.30;;;1.90;;
75552;SDS011;64136;53.118;17.996;2023-08-06T00:23:46;2.30;;;1.90;;
75552;SDS011;64136;53.118;17.996;2023-08-06T00:26:12;2.40;;;2.20;;
75552;SDS011;64136;53.118;17.996;2023-08-06T00:28:39;4.20;;;2.50;;
75552;SDS011;64136;53.118;17.996;2023-08-06T00:31:05;3.40;;;2.50;;
75552;SDS011;64136;53.118;17.996;2023-08-06T00:33:31;3.90;;;1.80;;
75552;SDS011;64136;53.118;17.996;2023-08-06T00:35:57;2.10;;;1.70;;
75552;SDS011;64136;53.118;17.996;2023-08-06T00:38:23;3.00;;;1.90;;
75552;SDS011;64136;53.118;17.996;2023-08-06T00:40:49;2.70;;;2.00;;
75552;SDS011;64136;53.118;17.996;2023-08-06T00:43:16;3.10;;;2.00;;
75552;SDS011;64136;53.118;17.996;2023-08-06T00:45:42;3.50;;;2.00;;
75552;SDS011;64136;53.118;17.996;2023-08-06T00:48:09;3.30;;;2.00;;
75552;SDS011;64136;53.118;17.996;2023-08-06T00:50:36;3.80;;;3.00;;
75552;SDS011;64136;53.118;17.996;2023-08-06T00:53:03;2.10;;;1.90;;
75552;SDS011;64136;53.118;17.996;2023-08-06T00:55:29;3.30;;;2.40;;
75552;SDS011;64136;53.118;17.996;2023-08-06T00:57:55;2.50;;;2.00;;
75552;SDS011;64136;53.118;17.996;2023-08-06T01:00:22;3.50;;;2.30;;
75552;SDS011;64136;53.118;17.996;2023-08-06T01:02:49;2.60;;;2.00;;
75552;SDS011;64136;53.118;17.996;2023-08-06T01:05:15;2.80;;;2.20;;
75552;SDS011;64136;53.118;17.996;2023-08-06T01:07:51;2.80;;;2.20;;
75552;SDS011;64136;53.118;17.996;2023-08-06T01:10:36;3.50;;;2.60;;
75552;SDS011;64136;53.118;17.996;2023-08-06T01:13:27;5.30;;;2.40;;
75552;SDS011;64136;53.118;17.996;2023-08-06T01:15:59;3.90;;;2.60;;
75552;SDS011;64136;53.118;17.996;2023-08-06T01:18:26;3.00;;;2.60;;
75552;SDS011;64136;53.118;17.996;2023-08-06T01:20:52;3.90;;;2.20;;
75552;SDS011;64136;53.118;17.996;2023-08-06T01:23:19;2.90;;;2.10;;
75552;SDS011;64136;53.118;17.996;2023-08-06T01:28:44;2.20;;;2.00;;
75552;SDS011;64136;53.118;17.996;2023-08-06T01:31:26;3.90;;;2.10;;
75552;SDS011;64136;53.118;17.996;2023-08-06T01:33:58;3.20;;;1.80;;
75552;SDS011;64136;53.118;17.996;2023-08-06T01:36:28;1.80;;;1.60;;
75552;SDS011;64136;53.118;17.996;2023-08-06T01:38:54;2.30;;;1.70;;
75552;SDS011;64136;53.118;17.996;2023-08-06T01:41:21;2.00;;;1.60;;
75552;SDS011;64136;53.118;17.996;2023-08-06T01:43:47;2.90;;;2.10;;
75552;SDS011;64136;53.118;17.996;2023-08-06T01:46:13;2.20;;;1.50;;
75552;SDS011;64136;53.118;17.996;2023-08-06T01:48:39;4.60;;;2.30;;
75552;SDS011;64136;53.118;17.996;2023-08-06T01:51:06;2.80;;;2.00;;
75552;SDS011;64136;53.118;17.996;2023-08-06T01:53:33;3.10;;;1.60;;
75552;SDS011;64136;53.118;17.996;2023-08-06T01:55:59;2.60;;;2.10;;
75552;SDS011;64136;53.118;17.996;2023-08-06T01:58:25;2.80;;;1.50;;
75552;SDS011;64136;53.118;17.996;2023-08-06T02:00:53;2.80;;;2.40;;
75552;SDS011;64136;53.118;17.996;2023-08-06T02:03:19;2.80;;;1.80;;
75552;SDS011;64136;53.118;17.996;2023-08-06T02:05:51;4.50;;;2.60;;
75552;SDS011;64136;53.118;17.996;2023-08-06T02:08:24;2.00;;;1.70;;
75552;SDS011;64136;53.118;17.996;2023-08-06T02:10:50;2.10;;;1.90;;
75552;SDS011;64136;53.118;17.996;2023-08-06T02:13:16;3.70;;;3.30;;
75552;SDS011;64136;53.118;17.996;2023-08-06T02:15:43;2.40;;;2.00;;
75552;SDS011;64136;53.118;17.996;2023-08-06T02:18:10;3.00;;;1.80;;
75552;SDS011;64136;53.118;17.996;2023-08-06T02:20:36;3.90;;;2.10;;
75552;SDS011;64136;53.118;17.996;2023-08-06T02:23:02;2.60;;;1.60;;
75552;SDS011;64136;53.118;17.996;2023-08-06T02:25:28;2.80;;;1.70;;
75552;SDS011;64136;53.118;17.996;2023-08-06T02:27:54;2.60;;;1.70;;
75552;SDS011;64136;53.118;17.996;2023-08-06T02:30:21;2.10;;;1.70;;
75552;SDS011;64136;53.118;17.996;2023-08-06T02:32:47;2.40;;;1.90;;
75552;SDS011;64136;53.118;17.996;2023-08-06T02:35:13;3.40;;;2.00;;
75552;SDS011;64136;53.118;17.996;2023-08-06T02:37:40;2.90;;;2.10;;
75552;SDS011;64136;53.118;17.996;2023-08-06T02:40:06;2.00;;;1.80;;
75552;SDS011;64136;53.118;17.996;2023-08-06T02:45:00;2.80;;;1.80;;
75552;SDS011;64136;53.118;17.996;2023-08-06T02:47:26;1.90;;;1.40;;
75552;SDS011;64136;53.118;17.996;2023-08-06T02:49:53;1.60;;;1.50;;
75552;SDS011;64136;53.118;17.996;2023-08-06T02:52:19;2.10;;;1.70;;
75552;SDS011;64136;53.118;17.996;2023-08-06T02:54:45;1.40;;;1.30;;
75552;SDS011;64136;53.118;17.996;2023-08-06T02:57:12;1.40;;;1.30;;
75552;SDS011;64136;53.118;17.996;2023-08-06T02:59:38;3.50;;;1.70;;
75552;SDS011;64136;53.118;17.996;2023-08-06T03:02:10;1.90;;;1.70;;
75552;SDS011;64136;53.118;17.996;2023-08-06T03:04:40;2.20;;;1.40;;
75552;SDS011;64136;53.118;17.996;2023-08-06T03:07:07;3.40;;;1.70;;
75552;SDS011;64136;53.118;17.996;2023-08-06T03:09:39;3.10;;;1.70;;
75552;SDS011;64136;53.118;17.996;2023-08-06T03:12:06;2.50;;;2.00;;
75552;SDS011;64136;53.118;17.996;2023-08-06T03:14:33;2.40;;;1.50;;
75552;SDS011;64136;53.118;17.996;2023-08-06T03:17:00;3.30;;;1.70;;
75552;SDS011;64136;53.118;17.996;2023-08-06T03:19:26;2.20;;;1.20;;
75552;SDS011;64136;53.118;17.996;2023-08-06T03:21:54;1.80;;;1.70;;
75552;SDS011;64136;53.118;17.996;2023-08-06T03:24:21;1.80;;;1.50;;
75552;SDS011;64136;53.118;17.996;2023-08-06T03:26:48;2.10;;;1.40;;
75552;SDS011;64136;53.118;17.996;2023-08-06T03:29:14;1.70;;;1.40;;
75552;SDS011;64136;53.118;17.996;2023-08-06T03:34:09;2.10;;;1.70;;
75552;SDS011;64136;53.118;17.996;2023-08-06T03:36:38;1.60;;;1.50;;
75552;SDS011;64136;53.118;17.996;2023-08-06T03:39:06;1.60;;;1.50;;
75552;SDS011;64136;53.118;17.996;2023-08-06T03:41:33;2.20;;;1.80;;
75552;SDS011;64136;53.118;17.996;2023-08-06T03:43:59;1.90;;;1.40;;
75552;SDS011;64136;53.118;17.996;2023-08-06T03:46:29;3.50;;;1.60;;
75552;SDS011;64136;53.118;17.996;2023-08-06T03:51:23;1.60;;;1.50;;
75552;SDS011;64136;53.118;17.996;2023-08-06T03:53:49;2.90;;;1.90;;
75552;SDS011;64136;53.118;17.996;2023-08-06T03:56:15;1.90;;;1.60;;
75552;SDS011;64136;53.118;17.996;2023-08-06T03:58:41;1.80;;;1.40;;
75552;SDS011;64136;53.118;17.996;2023-08-06T04:01:08;2.10;;;1.60;;
75552;SDS011;64136;53.118;17.996;2023-08-06T04:03:39;1.90;;;1.60;;
75552;SDS011;64136;53.118;17.996;2023-08-06T04:06:05;2.10;;;1.80;;
75552;SDS011;64136;53.118;17.996;2023-08-06T04:08:32;2.00;;;1.80;;
75552;SDS011;64136;53.118;17.996;2023-08-06T04:10:58;2.60;;;1.70;;
75552;SDS011;64136;53.118;17.996;2023-08-06T04:13:24;2.90;;;2.00;;
75552;SDS011;64136;53.118;17.996;2023-08-06T04:15:51;2.90;;;1.60;;
75552;SDS011;64136;53.118;17.996;2023-08-06T04:18:19;3.60;;;1.70;;
75552;SDS011;64136;53.118;17.996;2023-08-06T04:20:46;1.30;;;1.20;;
75552;SDS011;64136;53.118;17.996;2023-08-06T04:23:15;1.30;;;1.00;;
75552;SDS011;64136;53.118;17.996;2023-08-06T04:25:42;2.00;;;1.80;;
75552;SDS011;64136;53.118;17.996;2023-08-06T04:28:09;3.20;;;1.60;;
75552;SDS011;64136;53.118;17.996;2023-08-06T04:30:36;1.30;;;1.10;;
75552;SDS011;64136;53.118;17.996;2023-08-06T04:33:03;2.10;;;1.30;;
75552;SDS011;64136;53.118;17.996;2023-08-06T04:35:29;1.20;;;1.10;;
75552;SDS011;64136;53.118;17.996;2023-08-06T04:37:55;2.30;;;1.60;;
75552;SDS011;64136;53.118;17.996;2023-08-06T04:40:22;2.10;;;1.20;;
75552;SDS011;64136;53.118;17.996;2023-08-06T04:42:48;1.60;;;1.40;;
75552;SDS011;64136;53.118;17.996;2023-08-06T04:45:14;0.90;;;0.90;;
75552;SDS011;64136;53.118;17.996;2023-08-06T04:47:40;0.90;;;0.80;;
75552;SDS011;64136;53.118;17.996;2023-08-06T04:50:07;1.30;;;1.20;;
75552;SDS011;64136;53.118;17.996;2023-08-06T04:52:33;2.10;;;1.20;;
75552;SDS011;64136;53.118;17.996;2023-08-06T04:54:59;2.30;;;1.10;;
75552;SDS011;64136;53.118;17.996;2023-08-06T04:57:25;1.30;;;1.10;;
75552;SDS011;64136;53.118;17.996;2023-08-06T04:59:52;1.40;;;1.30;;
75552;SDS011;64136;53.118;17.996;2023-08-06T05:02:20;1.00;;;0.90;;
75552;SDS011;64136;53.118;17.996;2023-08-06T05:04:46;1.10;;;1.00;;
75552;SDS011;64136;53.118;17.996;2023-08-06T05:07:12;1.60;;;1.50;;
75552;SDS011;64136;53.118;17.996;2023-08-06T05:09:38;1.80;;;1.50;;
75552;SDS011;64136;53.118;17.996;2023-08-06T05:12:05;1.40;;;1.30;;
75552;SDS011;64136;53.118;17.996;2023-08-06T05:14:31;1.50;;;1.40;;
75552;SDS011;64136;53.118;17.996;2023-08-06T05:16:57;1.50;;;1.40;;
75552;SDS011;64136;53.118;17.996;2023-08-06T05:19:27;1.80;;;1.50;;
75552;SDS011;64136;53.118;17.996;2023-08-06T05:21:53;1.40;;;1.30;;
75552;SDS011;64136;53.118;17.996;2023-08-06T05:24:19;1.60;;;1.50;;
75552;SDS011;64136;53.118;17.996;2023-08-06T05:26:45;2.90;;;1.30;;
75552;SDS011;64136;53.118;17.996;2023-08-06T05:29:13;2.60;;;1.50;;
75552;SDS011;64136;53.118;17.996;2023-08-06T05:31:39;3.10;;;1.90;;
75552;SDS011;64136;53.118;17.996;2023-08-06T05:34:06;1.90;;;1.70;;
75552;SDS011;64136;53.118;17.996;2023-08-06T05:36:34;1.90;;;1.30;;
75552;SDS011;64136;53.118;17.996;2023-08-06T05:39:00;2.30;;;2.00;;
75552;SDS011;64136;53.118;17.996;2023-08-06T05:41:26;2.10;;;1.90;;
75552;SDS011;64136;53.118;17.996;2023-08-06T05:43:52;2.10;;;1.90;;
75552;SDS011;64136;53.118;17.996;2023-08-06T05:46:18;3.20;;;2.00;;
75552;SDS011;64136;53.118;17.996;2023-08-06T05:48:44;2.10;;;1.70;;
75552;SDS011;64136;53.118;17.996;2023-08-06T05:51:11;3.00;;;1.90;;
75552;SDS011;64136;53.118;17.996;2023-08-06T05:53:39;2.60;;;1.70;;
75552;SDS011;64136;53.118;17.996;2023-08-06T05:56:05;2.20;;;1.50;;
75552;SDS011;64136;53.118;17.996;2023-08-06T05:58:31;2.80;;;2.20;;
75552;SDS011;64136;53.118;17.996;2023-08-06T06:00:57;3.30;;;1.90;;
75552;SDS011;64136;53.118;17.996;2023-08-06T06:03:26;4.10;;;2.20;;
75552;SDS011;64136;53.118;17.996;2023-08-06T06:05:53;2.90;;;2.50;;
75552;SDS011;64136;53.118;17.996;2023-08-06T06:08:19;2.20;;;1.60;;
75552;SDS011;64136;53.118;17.996;2023-08-06T06:10:45;2.20;;;1.90;;
75552;SDS011;64136;53.118;17.996;2023-08-06T06:13:12;3.80;;;2.50;;
75552;SDS011;64136;53.118;17.996;2023-08-06T06:15:38;3.00;;;2.00;;
75552;SDS011;64136;53.118;17.996;2023-08-06T06:18:04;2.50;;;2.30;;
75552;SDS011;64136;53.118;17.996;2023-08-06T06:20:31;3.10;;;2.20;;
75552;SDS011;64136;53.118;17.996;2023-08-06T06:23:18;3.20;;;2.90;;
75552;SDS011;64136;53.118;17.996;2023-08-06T06:25:48;3.10;;;2.30;;
75552;SDS011;64136;53.118;17.996;2023-08-06T06:28:15;2.00;;;1.80;;
75552;SDS011;64136;53.118;17.996;2023-08-06T06:30:41;3.80;;;2.80;;
75552;SDS011;64136;53.118;17.996;2023-08-06T06:33:08;4.80;;;3.40;;
75552;SDS011;64136;53.118;17.996;2023-08-06T06:35:34;5.90;;;4.00;;
75552;SDS011;64136;53.118;17.996;2023-08-06T06:38:00;5.70;;;3.60;;
75552;SDS011;64136;53.118;17.996;2023-08-06T06:40:26;4.30;;;3.80;;
75552;SDS011;64136;53.118;17.996;2023-08-06T06:42:53;3.40;;;2.90;;
75552;SDS011;64136;53.118;17.996;2023-08-06T06:45:19;5.00;;;4.10;;
75552;SDS011;64136;53.118;17.996;2023-08-06T06:47:45;5.10;;;4.10;;
75552;SDS011;64136;53.118;17.996;2023-08-06T06:50:11;5.80;;;4.20;;
75552;SDS011;64136;53.118;17.996;2023-08-06T06:52:37;7.00;;;4.70;;
75552;SDS011;64136;53.118;17.996;2023-08-06T06:55:04;7.20;;;4.70;;
75552;SDS011;64136;53.118;17.996;2023-08-06T06:57:30;5.70;;;5.00;;
75552;SDS011;64136;53.118;17.996;2023-08-06T06:59:57;6.20;;;4.70;;
75552;SDS011;64136;53.118;17.996;2023-08-06T07:02:23;6.60;;;4.70;;
75552;SDS011;64136;53.118;17.996;2023-08-06T07:04:49;10.00;;;5.00;;
75552;SDS011;64136;53.118;17.996;2023-08-06T07:07:16;6.70;;;4.60;;
75552;SDS011;64136;53.118;17.996;2023-08-06T07:09:42;4.80;;;3.70;;
75552;SDS011;64136;53.118;17.996;2023-08-06T07:12:08;5.30;;;4.20;;
75552;SDS011;64136;53.118;17.996;2023-08-06T07:14:35;4.30;;;3.30;;
75552;SDS011;64136;53.118;17.996;2023-08-06T07:17:01;6.80;;;4.10;;
75552;SDS011;64136;53.118;17.996;2023-08-06T07:19:27;6.20;;;3.70;;
75552;SDS011;64136;53.118;17.996;2023-08-06T07:21:54;5.00;;;4.40;;
75552;SDS011;64136;53.118;17.996;2023-08-06T07:24:23;4.40;;;3.90;;
75552;SDS011;64136;53.118;17.996;2023-08-06T07:26:49;3.20;;;2.50;;
75552;SDS011;64136;53.118;17.996;2023-08-06T07:29:15;5.20;;;4.10;;
75552;SDS011;64136;53.118;17.996;2023-08-06T07:31:47;4.60;;;3.90;;
75552;SDS011;64136;53.118;17.996;2023-08-06T07:34:15;3.10;;;2.40;;
75552;SDS011;64136;53.118;17.996;2023-08-06T07:36:43;3.40;;;2.30;;
75552;SDS011;64136;53.118;17.996;2023-08-06T07:39:12;6.10;;;3.70;;
75552;SDS011;64136;53.118;17.996;2023-08-06T07:41:39;5.30;;;3.60;;
75552;SDS011;64136;53.118;17.996;2023-08-06T07:44:05;5.50;;;3.40;;
75552;SDS011;64136;53.118;17.996;2023-08-06T07:46:31;3.50;;;3.20;;
75552;SDS011;64136;53.118;17.996;2023-08-06T07:48:57;5.70;;;3.70;;
75552;SDS011;64136;53.118;17.996;2023-08-06T07:51:24;5.10;;;2.90;;
75552;SDS011;64136;53.118;17.996;2023-08-06T07:53:50;4.80;;;2.80;;
75552;SDS011;64136;53.118;17.996;2023-08-06T07:56:16;5.00;;;3.20;;
75552;SDS011;64136;53.118;17.996;2023-08-06T07:58:42;6.60;;;3.60;;
75552;SDS011;64136;53.118;17.996;2023-08-06T08:01:08;4.80;;;2.90;;
75552;SDS011;64136;53.118;17.996;2023-08-06T08:03:35;4.40;;;3.40;;
75552;SDS011;64136;53.118;17.996;2023-08-06T08:06:04;6.40;;;3.70;;
75552;SDS011;64136;53.118;17.996;2023-08-06T08:08:30;5.10;;;3.30;;
75552;SDS011;64136;53.118;17.996;2023-08-06T08:10:57;3.90;;;2.90;;
75552;SDS011;64136;53.118;17.996;2023-08-06T08:13:25;2.50;;;2.20;;
75552;SDS011;64136;53.118;17.996;2023-08-06T08:15:56;5.50;;;2.90;;
75552;SDS011;64136;53.118;17.996;2023-08-06T08:18:23;3.90;;;3.00;;
75552;SDS011;64136;53.118;17.996;2023-08-06T08:20:50;5.10;;;3.40;;
75552;SDS011;64136;53.118;17.996;2023-08-06T08:23:16;3.00;;;2.40;;
75552;SDS011;64136;53.118;17.996;2023-08-06T08:25:43;4.50;;;3.70;;
75552;SDS011;64136;53.118;17.996;2023-08-06T08:28:09;3.30;;;2.40;;
75552;SDS011;64136;53.118;17.996;2023-08-06T08:30:36;3.90;;;3.50;;
75552;SDS011;64136;53.118;17.996;2023-08-06T08:33:02;5.00;;;3.80;;
75552;SDS011;64136;53.118;17.996;2023-08-06T08:35:28;5.50;;;3.00;;
75552;SDS011;64136;53.118;17.996;2023-08-06T08:37:54;3.70;;;3.10;;
75552;SDS011;64136;53.118;17.996;2023-08-06T08:40:21;5.60;;;3.40;;
75552;SDS011;64136;53.118;17.996;2023-08-06T08:42:52;5.00;;;3.50;;
75552;SDS011;64136;53.118;17.996;2023-08-06T08:45:20;3.50;;;2.70;;
